DFOO/BOY METAR and TAF weather

Enter ICAO airport designator
Station Type Date Time Source
DFOO METAR 2023/02/05 13:00 UTC NOAA

DFOO 051300Z 06009KT 020V100 8000 NSC 34/M03 Q1013


Station Type Date Time Source
DFOO Decoded METAR 2023/02/05 13:00 UTC NOAA

Bobo-Dioulasso, Burkina Faso (DFOO) 11-10N 004-19W 460M
Feb 05, 2023 - 08:00 AM EST / 2023.02.05 1300 UTC
Wind: from the ENE (060 degrees) at 10 MPH (9 KT) (direction variable):0
Visibility: 4 mile(s):0
Temperature: 93 F (34 C)
Dew Point: 26 F (-3 C)
Relative Humidity: 9%
Pressure (altimeter): 29.91 in. Hg (1013 hPa)
ob: DFOO 051300Z 06009KT 020V100 8000 NSC 34/M03 Q1013
cycle: 13

Station Type Date Time Source
DFOO TAF 2023/02/05 12:04 UTC NOAA

TAF DFOO 051100Z 0512/0612 04010KT 8000 NSC
TEMPO 0606/0610 4000 HZ

Example: see airport list